Time;durP1;ratioP1;P1;durP2;ratioP2;P2;SDS_P1;SDS_P2;PMS_P1;PMS_P2;Temp;Humidity;BMP_temperature;BMP_pressure;BME280_temperature;BME280_humidity;BME280_pressure;Samples;Min_cycle;Max_cycle;Signal;HPM_P1;HPM_P2
2022/12/07 00:01:14;;;;;;;45.77;24.73;;;;;;;2.95;100.00;101293.41;5005071;28;20754;-72
2022/12/07 00:03:41;;;;;;;39.43;22.47;;;;;;;2.94;100.00;101294.19;5003806;28;20227;-73
2022/12/07 00:06:07;;;;;;;43.00;24.20;;;;;;;2.95;100.00;101293.41;5004829;28;20191;-73
2022/12/07 00:08:34;;;;;;;43.63;24.10;;;;;;;2.97;100.00;101281.69;5007639;28;20275;-72
2022/12/07 00:11:11;;;;;;;44.70;25.30;;;;;;;2.99;100.00;101285.22;5007131;28;20218;-72
2022/12/07 00:13:38;;;;;;;52.90;24.87;;;;;;;3.02;100.00;101273.59;5008201;28;20652;-75
2022/12/07 00:16:05;;;;;;;45.30;24.57;;;;;;;3.04;100.00;101273.69;5004989;28;20211;-75
2022/12/07 00:18:30;;;;;;;43.00;25.63;;;;;;;3.06;100.00;101264.50;5005071;28;20186;-74
2022/12/07 00:21:17;;;;;;;44.33;24.33;;;;;;;3.08;100.00;101270.53;5003132;28;20696;-72
2022/12/07 00:23:44;;;;;;;45.17;24.13;;;;;;;3.09;100.00;101260.50;5002829;28;20648;-74
2022/12/07 00:26:15;;;;;;;39.17;23.47;;;;;;;3.16;100.00;101246.53;5011986;28;20218;-72
2022/12/07 00:28:44;;;;;;;42.03;23.87;;;;;;;3.18;100.00;101252.56;5005178;28;20183;-74
2022/12/07 00:31:12;;;;;;;44.50;23.93;;;;;;;3.20;100.00;101253.50;5005095;28;20224;-74
2022/12/07 00:33:38;;;;;;;44.60;24.07;;;;;;;3.26;100.00;101248.78;5016504;28;20217;-75
2022/12/07 00:36:07;;;;;;;38.73;23.07;;;;;;;3.26;100.00;101249.66;5005619;28;20310;-75
2022/12/07 00:38:34;;;;;;;42.73;24.07;;;;;;;3.27;100.00;101237.88;5009293;28;20183;-72
2022/12/07 00:41:05;;;;;;;43.97;24.33;;;;;;;3.30;100.00;101231.31;5010731;28;20225;-73
2022/12/07 00:43:31;;;;;;;41.13;23.27;;;;;;;3.33;100.00;101231.50;5009331;28;20245;-73
2022/12/07 00:45:57;;;;;;;37.40;23.07;;;;;;;3.37;100.00;101230.88;5010997;28;20182;-75
2022/12/07 00:48:23;;;;;;;41.63;23.23;;;;;;;3.38;100.00;101232.59;5008825;28;20187;-72
2022/12/07 00:50:49;;;;;;;39.90;23.73;;;;;;;3.43;100.00;101230.31;5009750;28;20238;-74
2022/12/07 00:53:15;;;;;;;40.23;22.97;;;;;;;3.45;100.00;101223.69;5009759;28;20230;-72
2022/12/07 00:55:41;;;;;;;38.30;23.60;;;;;;;3.46;100.00;101216.19;5007964;28;20235;-72
2022/12/07 00:58:06;;;;;;;41.57;23.73;;;;;;;3.46;100.00;101221.25;5008684;28;20277;-72
2022/12/07 01:00:33;;;;;;;40.70;23.87;;;;;;;3.48;100.00;101212.06;5010576;28;20211;-72
2022/12/07 01:02:58;;;;;;;38.67;21.97;;;;;;;3.49;100.00;101210.41;5010873;28;20190;-72
2022/12/07 01:05:24;;;;;;;37.47;21.10;;;;;;;3.47;100.00;101200.19;5008349;28;20546;-72
2022/12/07 01:07:49;;;;;;;39.73;22.40;;;;;;;3.47;100.00;101197.66;5009357;28;20257;-72
2022/12/07 01:10:15;;;;;;;36.70;22.10;;;;;;;3.43;100.00;101190.69;5010016;28;20211;-72
2022/12/07 01:12:40;;;;;;;42.47;21.57;;;;;;;3.39;100.00;101192.97;5010829;28;20206;-73
2022/12/07 01:15:07;;;;;;;36.07;21.40;;;;;;;3.39;100.00;101187.91;5010627;28;20211;-75
2022/12/07 01:17:33;;;;;;;36.33;20.87;;;;;;;3.37;100.00;101190.38;5010701;28;20178;-72
2022/12/07 01:19:58;;;;;;;38.50;20.63;;;;;;;3.39;100.00;101187.91;5010287;28;20725;-73
2022/12/07 01:22:24;;;;;;;32.33;19.53;;;;;;;3.40;100.00;101194.75;5008953;28;20241;-72
2022/12/07 01:24:49;;;;;;;38.20;19.43;;;;;;;3.43;100.00;101197.41;5016213;28;20553;-72
2022/12/07 01:27:15;;;;;;;32.93;19.53;;;;;;;3.46;100.00;101188.34;4999672;28;20299;-72
2022/12/07 01:29:40;;;;;;;30.50;18.40;;;;;;;3.49;100.00;101187.63;5004571;28;20193;-72
2022/12/07 01:32:06;;;;;;;31.63;18.17;;;;;;;3.52;100.00;101187.78;5008758;28;20191;-72
2022/12/07 01:34:31;;;;;;;35.10;19.03;;;;;;;3.50;100.00;101180.09;5010136;28;20552;-74
2022/12/07 01:36:57;;;;;;;30.50;18.63;;;;;;;3.45;100.00;101173.06;5010216;28;20214;-73
2022/12/07 01:39:23;;;;;;;33.57;18.87;;;;;;;3.44;100.00;101177.25;5017827;28;20206;-73
2022/12/07 01:41:48;;;;;;;29.67;17.43;;;;;;;3.44;100.00;101174.72;5009162;28;20294;-73
2022/12/07 01:44:21;;;;;;;31.70;17.20;;;;;;;3.43;100.00;101167.03;5007732;28;20191;-74
2022/12/07 01:46:49;;;;;;;34.73;18.53;;;;;;;3.45;100.00;101173.94;5007245;28;20239;-72
2022/12/07 01:49:20;;;;;;;35.37;18.13;;;;;;;3.50;100.00;101169.97;5004610;28;20186;-73
2022/12/07 01:51:48;;;;;;;32.57;17.67;;;;;;;3.53;100.00;101171.78;5006142;28;20210;-73
2022/12/07 01:54:15;;;;;;;37.37;19.40;;;;;;;3.55;100.00;101166.00;5004506;28;20191;-73
2022/12/07 01:56:46;;;;;;;32.63;18.07;;;;;;;3.58;100.00;101173.78;5000872;28;20580;-73
2022/12/07 01:59:13;;;;;;;29.17;17.00;;;;;;;3.59;100.00;101170.44;5014487;28;20195;-73
2022/12/07 02:01:38;;;;;;;29.83;17.00;;;;;;;3.62;100.00;101167.22;5008193;28;20214;-71
2022/12/07 02:04:05;;;;;;;29.43;16.70;;;;;;;3.64;100.00;101163.13;5009756;28;20551;-73
2022/12/07 02:06:31;;;;;;;28.67;16.57;;;;;;;3.68;100.00;101158.28;5006974;28;20218;-72
2022/12/07 02:08:56;;;;;;;30.43;16.10;;;;;;;3.71;100.00;101160.97;5003828;28;20298;-73
2022/12/07 02:11:22;;;;;;;27.10;16.17;;;;;;;3.69;100.00;101151.56;5006744;28;20215;-73
2022/12/07 02:13:48;;;;;;;28.53;15.93;;;;;;;3.62;100.00;101155.44;5002664;28;20191;-73
2022/12/07 02:16:26;;;;;;;28.57;15.57;;;;;;;3.56;100.00;101150.06;5002714;28;20219;-71
2022/12/07 02:19:07;;;;;;;26.07;14.33;;;;;;;3.56;100.00;101150.06;5007792;28;20197;-71
2022/12/07 02:21:44;;;;;;;31.57;14.97;;;;;;;3.59;100.00;101147.66;4996881;28;20230;-72
2022/12/07 02:24:12;;;;;;;29.10;15.00;;;;;;;3.64;100.00;101151.31;5000643;28;20665;-72
2022/12/07 02:27:02;;;;;;;25.03;13.87;;;;;;;3.70;100.00;101149.13;5000052;28;20203;-73
2022/12/07 02:29:39;;;;;;;23.53;13.37;;;;;;;3.74;100.00;101143.41;5002990;28;20188;-73
2022/12/07 02:32:18;;;;;;;22.53;12.30;;;;;;;3.73;100.00;101144.19;5013608;28;20180;-71
2022/12/07 02:34:49;;;;;;;22.07;10.83;;;;;;;3.67;100.00;101137.94;4999375;28;20227;-71
2022/12/07 02:37:47;;;;;;;22.63;10.77;;;;;;;3.63;100.00;101136.91;5003034;28;20256;-71
2022/12/07 02:40:24;;;;;;;20.27;10.77;;;;;;;3.60;100.00;101140.97;5005892;28;20281;-75
2022/12/07 02:42:58;;;;;;;19.83;10.17;;;;;;;3.62;100.00;101131.78;5005653;28;20199;-75
2022/12/07 02:45:27;;;;;;;16.77;9.90;;;;;;;3.56;100.00;101139.06;5007953;28;20178;-74
2022/12/07 02:47:58;;;;;;;19.87;10.50;;;;;;;3.50;100.00;101137.06;5001406;28;20191;-73
2022/12/07 02:50:24;;;;;;;18.20;9.73;;;;;;;3.46;100.00;101132.66;5000982;28;20210;-74
2022/12/07 02:52:50;;;;;;;19.47;9.73;;;;;;;3.43;100.00;101147.69;5004423;28;20215;-74
2022/12/07 02:55:19;;;;;;;16.40;9.27;;;;;;;3.41;100.00;101141.66;4998832;28;21041;-73
2022/12/07 02:58:01;;;;;;;19.60;9.53;;;;;;;3.37;100.00;101138.91;5003422;28;20196;-73
2022/12/07 03:00:27;;;;;;;15.30;9.17;;;;;;;3.37;100.00;101138.91;5004597;28;20259;-73
2022/12/07 03:03:09;;;;;;;17.87;8.93;;;;;;;3.36;100.00;101145.59;5009714;28;20650;-74
2022/12/07 03:05:52;;;;;;;19.20;9.40;;;;;;;3.32;100.00;101137.78;5022214;28;20197;-75
2022/12/07 03:08:21;;;;;;;13.60;8.00;;;;;;;3.32;100.00;101147.91;5012418;28;20677;-75
2022/12/07 03:10:55;;;;;;;18.33;8.97;;;;;;;3.35;100.00;101148.09;5012487;28;20211;-74
2022/12/07 03:13:23;;;;;;;16.23;8.40;;;;;;;3.32;100.00;101148.75;5017862;28;20191;-73
2022/12/07 03:16:10;;;;;;;15.03;7.80;;;;;;;3.36;100.00;101155.72;5014815;28;20235;-74
2022/12/07 03:18:46;;;;;;;14.50;8.13;;;;;;;3.42;100.00;101150.13;5011471;28;20195;-73
2022/12/07 03:21:17;;;;;;;11.40;7.50;;;;;;;3.42;100.00;101151.00;5006754;28;20301;-73
2022/12/07 03:23:46;;;;;;;15.53;8.10;;;;;;;3.41;100.00;101148.41;5012790;28;20183;-74
2022/12/07 03:26:14;;;;;;;13.53;6.70;;;;;;;3.37;100.00;101146.50;5009165;28;20672;-73
2022/12/07 03:28:45;;;;;;;12.53;6.43;;;;;;;3.36;100.00;101140.53;5011749;28;20195;-72
2022/12/07 03:31:15;;;;;;;12.03;6.00;;;;;;;3.33;100.00;101139.53;5008632;28;20223;-73
2022/12/07 03:33:58;;;;;;;13.40;5.57;;;;;;;3.31;100.00;101146.19;5009238;28;20201;-75
2022/12/07 03:36:46;;;;;;;11.63;6.00;;;;;;;3.30;100.00;101141.88;5011426;28;20261;-73
2022/12/07 03:39:26;;;;;;;9.83;5.50;;;;;;;3.26;100.00;101134.94;5008055;28;20602;-73
2022/12/07 03:41:53;;;;;;;12.63;5.67;;;;;;;3.27;100.00;101145.13;5010854;28;20214;-73
2022/12/07 03:44:20;;;;;;;13.20;5.50;;;;;;;3.21;100.00;101137.22;5012213;28;20191;-72
2022/12/07 03:47:04;;;;;;;10.87;5.20;;;;;;;3.23;100.00;101137.31;5009369;28;20613;-72
2022/12/07 03:49:49;;;;;;;11.57;5.47;;;;;;;3.22;100.00;101141.47;5021300;28;20260;-72
2022/12/07 03:52:17;;;;;;;12.60;5.30;;;;;;;3.18;100.00;101141.25;5002850;28;20196;-72
2022/12/07 03:54:51;;;;;;;8.63;5.10;;;;;;;3.17;100.00;101142.06;5019078;28;20194;-72
2022/12/07 03:57:18;;;;;;;9.20;4.73;;;;;;;3.15;100.00;101141.97;5012295;28;20670;-73
2022/12/07 03:59:45;;;;;;;8.73;4.43;;;;;;;3.11;100.00;101145.13;5010318;28;20179;-72
2022/12/07 04:02:12;;;;;;;8.97;4.57;;;;;;;3.10;100.00;101142.50;5009737;28;20277;-74
2022/12/07 04:04:38;;;;;;;9.40;4.53;;;;;;;3.02;100.00;101144.63;5010185;28;20195;-72
2022/12/07 04:07:04;;;;;;;11.27;4.50;;;;;;;3.01;100.00;101142.88;4997154;28;20224;-75
2022/12/07 04:09:29;;;;;;;10.37;4.30;;;;;;;2.95;100.00;101155.19;5012425;28;20806;-73
2022/12/07 04:11:55;;;;;;;8.47;4.90;;;;;;;2.94;100.00;101148.38;5005923;28;20211;-73
2022/12/07 04:14:21;;;;;;;7.70;4.03;;;;;;;2.91;100.00;101149.88;5008721;28;20606;-73
2022/12/07 04:16:48;;;;;;;6.60;4.37;;;;;;;2.89;100.00;101148.94;5000582;28;20299;-73
2022/12/07 04:19:14;;;;;;;16.53;4.87;;;;;;;2.90;100.00;101160.78;5000264;28;20203;-74
2022/12/07 04:21:39;;;;;;;7.03;4.23;;;;;;;2.88;100.00;101159.81;5002343;28;20207;-74
2022/12/07 04:24:05;;;;;;;10.47;4.77;;;;;;;2.87;100.00;101160.63;5003927;28;20984;-72
2022/12/07 04:26:30;;;;;;;11.47;4.40;;;;;;;2.85;100.00;101165.59;5002190;28;20203;-74
2022/12/07 04:28:56;;;;;;;8.93;4.33;;;;;;;2.84;100.00;101175.59;5018804;28;20202;-73
2022/12/07 04:31:21;;;;;;;8.67;4.23;;;;;;;2.87;100.00;101175.78;5011626;28;20215;-74
2022/12/07 04:33:46;;;;;;;13.97;4.57;;;;;;;2.84;100.00;101171.44;5005399;28;20199;-73
2022/12/07 04:36:12;;;;;;;7.73;3.80;;;;;;;2.80;100.00;101166.13;5003606;28;20213;-73
2022/12/07 04:38:37;;;;;;;11.10;4.50;;;;;;;2.79;100.00;101170.31;5003393;28;20927;-73
2022/12/07 04:41:07;;;;;;;10.77;4.33;;;;;;;2.76;100.00;101162.56;5004257;28;20274;-73
2022/12/07 04:43:34;;;;;;;8.40;4.50;;;;;;;2.76;100.00;101169.28;5000763;28;20187;-73
2022/12/07 04:45:59;;;;;;;10.93;4.37;;;;;;;2.74;100.00;101165.78;5009402;28;20180;-74
2022/12/07 04:48:25;;;;;;;7.73;4.10;;;;;;;2.71;100.00;101168.16;5004597;28;21039;-74
2022/12/07 04:50:50;;;;;;;9.10;4.00;;;;;;;2.67;100.00;101166.25;4999267;28;20679;-72
2022/12/07 04:53:16;;;;;;;7.57;4.03;;;;;;;2.67;100.00;101168.78;4999404;28;20200;-76
2022/12/07 04:55:42;;;;;;;9.83;4.30;;;;;;;2.63;100.00;101160.16;5003664;28;20281;-73
2022/12/07 04:58:07;;;;;;;9.20;4.37;;;;;;;2.60;100.00;101175.13;4999237;28;20195;-74
2022/12/07 05:00:33;;;;;;;13.10;4.07;;;;;;;2.57;100.00;101176.63;5003572;28;20274;-73
2022/12/07 05:02:58;;;;;;;9.13;3.90;;;;;;;2.55;100.00;101171.50;5003246;28;20187;-73
2022/12/07 05:05:24;;;;;;;6.83;3.70;;;;;;;2.50;100.00;101172.88;5007098;28;20186;-74
2022/12/07 05:07:50;;;;;;;8.80;4.50;;;;;;;2.48;100.00;101179.50;5006374;28;20183;-72
2022/12/07 05:10:16;;;;;;;6.07;3.93;;;;;;;2.46;100.00;101170.09;5005204;28;20246;-73
2022/12/07 05:12:41;;;;;;;10.17;3.70;;;;;;;2.41;100.00;101174.91;5010177;28;20644;-73
2022/12/07 05:15:07;;;;;;;8.10;3.53;;;;;;;2.41;100.00;101174.00;5007152;28;20219;-74
2022/12/07 05:17:32;;;;;;;5.37;3.97;;;;;;;2.40;100.00;101169.75;5010599;28;20191;-72
2022/12/07 05:19:58;;;;;;;10.97;3.77;;;;;;;2.36;100.00;101170.34;5006632;28;20179;-72
2022/12/07 05:22:27;;;;;;;9.53;3.70;;;;;;;2.31;100.00;101174.28;5001625;28;20249;-73
2022/12/07 05:24:54;;;;;;;6.67;3.37;;;;;;;2.31;100.00;101171.75;5001152;28;20681;-75
2022/12/07 05:27:19;;;;;;;6.57;3.57;;;;;;;2.27;100.00;101168.19;5002943;28;20195;-74
2022/12/07 05:29:45;;;;;;;5.93;3.70;;;;;;;2.27;100.00;101179.94;5002942;28;20205;-72
2022/12/07 05:32:10;;;;;;;7.67;3.30;;;;;;;2.22;100.00;101176.28;5002254;28;20803;-72
2022/12/07 05:34:35;;;;;;;11.37;3.67;;;;;;;2.19;100.00;101166.88;5004886;28;20563;-75
2022/12/07 05:37:01;;;;;;;7.10;3.47;;;;;;;2.19;100.00;101176.09;5001179;28;20278;-72
2022/12/07 05:39:26;;;;;;;7.30;3.50;;;;;;;2.16;100.00;101171.75;5002689;28;20190;-72
2022/12/07 05:44:36;;;;;;;11.77;3.70;;;;;;;2.14;100.00;101172.44;5008320;28;20250;-72
2022/12/07 05:47:01;;;;;;;6.10;3.50;;;;;;;2.14;100.00;101165.75;5006192;28;20195;-72
2022/12/07 05:49:27;;;;;;;5.63;3.27;;;;;;;2.11;100.00;101174.81;5008795;28;20178;-74
2022/12/07 05:51:52;;;;;;;5.90;3.60;;;;;;;2.10;100.00;101176.44;5007451;28;20206;-74
2022/12/07 05:54:18;;;;;;;8.20;3.73;;;;;;;2.06;100.00;101173.66;5002989;28;20213;-73
2022/12/07 05:56:43;;;;;;;8.40;3.70;;;;;;;2.04;100.00;101176.09;5006536;28;20207;-73
2022/12/07 05:59:25;;;;;;;8.50;3.97;;;;;;;2.00;100.00;101164.06;5010012;28;20226;-75
2022/12/07 06:02:04;;;;;;;8.37;3.67;;;;;;;1.98;100.00;101167.28;5007818;28;20219;-73
2022/12/07 06:04:32;;;;;;;6.93;3.40;;;;;;;1.96;100.00;101169.72;5009866;28;20182;-74
2022/12/07 06:06:58;;;;;;;5.77;3.63;;;;;;;1.98;100.00;101178.25;5008262;28;20266;-72
2022/12/07 06:09:25;;;;;;;8.43;4.03;;;;;;;1.97;100.00;101171.47;5008166;28;20262;-73
2022/12/07 06:14:35;;;;;;;9.50;4.27;;;;;;;1.99;100.00;101166.50;5005844;28;20199;-73
2022/12/07 06:17:01;;;;;;;7.90;3.50;;;;;;;1.95;100.00;101167.09;5010121;28;20195;-73
2022/12/07 06:19:27;;;;;;;7.97;3.67;;;;;;;1.93;100.00;101168.69;5004915;28;20202;-73
2022/12/07 06:21:53;;;;;;;8.27;3.60;;;;;;;1.91;100.00;101171.13;5016535;28;20210;-73
2022/12/07 06:24:19;;;;;;;9.00;3.90;;;;;;;1.89;100.00;101171.81;4998066;28;20665;-72
2022/12/07 06:26:45;;;;;;;7.60;3.80;;;;;;;1.86;100.00;101169.09;5009513;28;20261;-73
2022/12/07 06:29:11;;;;;;;6.03;3.97;;;;;;;1.85;100.00;101180.88;5008342;28;20322;-74
2022/12/07 06:31:37;;;;;;;12.23;3.90;;;;;;;1.84;100.00;101171.53;5009315;28;20296;-73
2022/12/07 06:34:06;;;;;;;6.30;3.30;;;;;;;1.81;100.00;101173.88;5012964;28;20723;-72
2022/12/07 06:36:31;;;;;;;6.00;3.60;;;;;;;1.82;100.00;101167.16;5003763;28;20211;-74
2022/12/07 06:38:57;;;;;;;5.70;3.27;;;;;;;1.83;100.00;101167.25;5013646;28;20183;-71
2022/12/07 06:41:23;;;;;;;7.10;3.60;;;;;;;1.83;100.00;101167.25;5012165;28;20219;-74
2022/12/07 06:43:49;;;;;;;9.27;4.17;;;;;;;1.80;100.00;101164.59;5015616;28;20218;-73
2022/12/07 06:46:15;;;;;;;5.20;3.10;;;;;;;1.75;100.00;101172.66;5006995;28;20245;-72
2022/12/07 06:48:41;;;;;;;6.20;3.53;;;;;;;1.70;100.00;101166.47;5010961;28;20186;-73
2022/12/07 06:51:07;;;;;;;5.00;2.83;;;;;;;1.68;100.00;101168.88;5002588;28;20214;-72
2022/12/07 06:53:33;;;;;;;4.07;3.13;;;;;;;1.70;100.00;101164.78;5006310;28;20535;-72
2022/12/07 06:55:58;;;;;;;6.57;3.10;;;;;;;1.67;100.00;101172.19;5014040;28;20577;-74
2022/12/07 06:58:23;;;;;;;5.93;3.37;;;;;;;1.70;100.00;101174.88;5021747;28;20206;-72
2022/12/07 07:00:50;;;;;;;4.90;3.10;;;;;;;1.72;100.00;101168.28;5007192;28;20215;-72
2022/12/07 07:03:16;;;;;;;5.47;3.17;;;;;;;1.73;100.00;101166.63;5011631;28;20632;-72
2022/12/07 07:05:42;;;;;;;7.73;3.77;;;;;;;1.74;100.00;101165.88;5006728;28;20183;-73
2022/12/07 07:08:08;;;;;;;4.70;2.87;;;;;;;1.73;100.00;101172.56;5014014;28;20183;-73
2022/12/07 07:10:34;;;;;;;7.33;2.87;;;;;;;1.74;100.00;101171.78;5005251;28;20208;-73
2022/12/07 07:12:59;;;;;;;6.17;3.00;;;;;;;1.79;100.00;101170.38;5013844;28;20195;-73
2022/12/07 07:15:25;;;;;;;6.47;3.00;;;;;;;1.82;100.00;101175.63;5013786;28;20203;-73
2022/12/07 07:17:50;;;;;;;6.67;3.27;;;;;;;1.86;100.00;101174.16;4995165;28;20723;-73
2022/12/07 07:20:16;;;;;;;6.60;3.30;;;;;;;1.86;100.00;101185.13;4994703;28;20708;-74
2022/12/07 07:22:41;;;;;;;5.77;2.80;;;;;;;1.92;100.00;101172.00;4993921;28;20168;-73
2022/12/07 07:25:07;;;;;;;5.63;3.20;;;;;;;1.90;100.00;101173.53;4992555;28;20191;-73
2022/12/07 07:27:32;;;;;;;8.47;3.40;;;;;;;1.92;100.00;101175.38;4993620;28;20241;-73
2022/12/07 07:29:58;;;;;;;9.70;3.77;;;;;;;1.96;100.00;101181.47;4993582;28;20341;-73
2022/12/07 07:32:23;;;;;;;8.83;4.30;;;;;;;2.00;100.00;101173.28;4992475;28;20271;-73
2022/12/07 07:34:48;;;;;;;9.67;4.10;;;;;;;1.99;100.00;101172.44;4993725;28;20168;-73
2022/12/07 07:37:14;;;;;;;10.17;4.60;;;;;;;2.02;100.00;101170.06;4992317;28;20282;-73
2022/12/07 07:39:40;;;;;;;9.90;3.57;;;;;;;2.07;100.00;101175.41;5003698;28;20187;-74
2022/12/07 07:42:07;;;;;;;8.03;3.73;;;;;;;2.06;100.00;101173.66;5011390;28;20292;-72
2022/12/07 07:44:33;;;;;;;4.97;3.10;;;;;;;2.11;100.00;101182.38;4998521;28;20644;-75
2022/12/07 07:46:59;;;;;;;5.37;2.67;;;;;;;2.37;100.00;101172.09;5006501;28;20230;-74
2022/12/07 07:49:25;;;;;;;7.07;3.17;;;;;;;2.34;100.00;101185.41;5010544;28;20325;-74
2022/12/07 07:51:50;;;;;;;5.87;2.67;;;;;;;2.32;100.00;101183.59;5003960;28;20195;-73
2022/12/07 07:54:16;;;;;;;6.47;2.90;;;;;;;2.31;100.00;101189.44;5009693;28;20222;-74
2022/12/07 07:56:41;;;;;;;5.67;2.93;;;;;;;2.31;100.00;101190.31;5010700;28;20214;-72
2022/12/07 07:59:06;;;;;;;6.47;2.57;;;;;;;2.32;100.00;101191.16;5007065;28;20187;-73
2022/12/07 08:01:32;;;;;;;4.83;2.60;;;;;;;2.37;100.00;101195.72;5007503;28;20203;-72
2022/12/07 08:03:57;;;;;;;5.30;2.53;;;;;;;2.40;100.00;101195.91;5003257;28;20203;-72
2022/12/07 08:06:23;;;;;;;7.13;2.90;;;;;;;2.41;100.00;101195.09;5006334;28;20278;-71
2022/12/07 08:08:48;;;;;;;5.40;2.83;;;;;;;2.43;100.00;101193.53;4946672;28;20264;-72
2022/12/07 08:11:13;;;;;;;8.73;2.90;;;;;;;2.46;100.00;101200.41;5000936;28;20298;-73
2022/12/07 08:13:39;;;;;;;4.80;2.60;;;;;;;2.46;100.00;101191.19;4995084;28;20184;-73
2022/12/07 08:16:11;;;;;;;8.17;3.07;;;;;;;2.47;100.00;101192.91;5002018;28;20225;-72
2022/12/07 08:18:38;;;;;;;3.70;2.40;;;;;;;2.49;100.00;101198.91;5027061;28;20594;-73
2022/12/07 08:21:05;;;;;;;7.63;2.63;;;;;;;2.50;100.00;101193.09;5010712;28;20595;-73
2022/12/07 08:23:31;;;;;;;7.90;3.00;;;;;;;2.53;100.00;101195.78;5012165;28;20187;-73
2022/12/07 08:26:01;;;;;;;5.90;3.20;;;;;;;2.58;100.00;101196.06;5012186;28;20702;-73
2022/12/07 08:28:28;;;;;;;7.97;2.53;;;;;;;2.66;100.00;101193.16;5006940;28;20222;-73
2022/12/07 08:31:01;;;;;;;4.33;3.03;;;;;;;2.69;100.00;101190.81;5007850;28;20231;-73
2022/12/07 08:33:27;;;;;;;4.23;2.47;;;;;;;2.72;100.00;101190.97;5002659;28;20214;-74
2022/12/07 08:35:53;;;;;;;5.20;2.67;;;;;;;2.76;100.00;101192.88;4999416;28;20301;-73
2022/12/07 08:38:18;;;;;;;7.30;2.83;;;;;;;2.77;100.00;101198.81;5004661;28;20282;-73
2022/12/07 08:40:44;;;;;;;4.70;2.33;;;;;;;2.81;100.00;101191.47;5007413;28;20260;-73
2022/12/07 08:43:09;;;;;;;7.47;2.60;;;;;;;2.88;100.00;101187.63;5008562;28;20735;-73
2022/12/07 08:45:35;;;;;;;6.37;2.57;;;;;;;2.93;100.00;101187.09;5004057;28;20691;-73
2022/12/07 08:48:06;;;;;;;6.97;2.60;;;;;;;2.98;100.00;101187.34;5000976;28;20215;-73
2022/12/07 08:50:33;;;;;;;5.03;2.63;;;;;;;3.02;100.00;101189.25;5005890;28;20203;-73
2022/12/07 08:52:59;;;;;;;5.40;2.77;;;;;;;3.07;100.00;101195.44;5002399;28;20732;-73
2022/12/07 08:55:27;;;;;;;4.00;2.57;;;;;;;3.14;100.00;101192.47;5005782;28;20680;-73
2022/12/07 08:57:52;;;;;;;8.03;2.33;;;;;;;3.18;100.00;101187.63;5005018;28;20191;-72
2022/12/07 09:00:18;;;;;;;5.83;2.40;;;;;;;3.24;100.00;101194.69;5010361;28;20264;-72
2022/12/07 09:02:45;;;;;;;5.17;2.00;;;;;;;3.29;100.00;101191.63;5006014;28;20703;-73
2022/12/07 09:05:11;;;;;;;5.50;2.23;;;;;;;3.36;100.00;101196.22;5009086;28;20213;-73
2022/12/07 09:07:37;;;;;;;5.67;2.67;;;;;;;3.46;100.00;101201.00;4981342;28;20691;-73
2022/12/07 09:10:04;;;;;;;4.33;2.33;;;;;;;3.57;100.00;101196.47;5000196;28;20218;-72
2022/12/07 09:12:29;;;;;;;8.67;2.50;;;;;;;3.76;100.00;101196.63;4998481;28;20188;-72
2022/12/07 09:14:55;;;;;;;5.90;2.07;;;;;;;3.90;100.00;101190.63;5006430;28;20202;-72
2022/12/07 09:17:21;;;;;;;4.87;2.23;;;;;;;4.01;100.00;101190.38;5008371;28;20191;-72
2022/12/07 09:19:47;;;;;;;3.13;2.13;;;;;;;4.08;100.00;101182.31;5006391;28;20660;-72
2022/12/07 09:22:12;;;;;;;4.57;2.23;;;;;;;4.22;100.00;101183.84;5017798;28;20186;-72
2022/12/07 09:24:38;;;;;;;3.77;2.10;;;;;;;4.26;100.00;101179.81;5002600;28;20194;-72
2022/12/07 09:27:03;;;;;;;2.20;1.87;;;;;;;4.36;99.90;101179.47;5010110;28;20287;-72
2022/12/07 09:29:29;;;;;;;4.73;2.40;;;;;;;4.41;99.49;101181.44;5008731;28;20190;-72
2022/12/07 09:31:54;;;;;;;6.10;2.00;;;;;;;4.49;99.49;101172.53;5010042;28;20270;-72
2022/12/07 09:34:20;;;;;;;3.67;2.17;;;;;;;4.52;99.19;101182.81;5010796;28;20236;-72
2022/12/07 09:36:46;;;;;;;7.03;2.50;;;;;;;4.54;99.14;101168.56;5009537;28;20242;-72
2022/12/07 09:39:12;;;;;;;3.87;2.30;;;;;;;4.57;98.93;101183.94;5010220;28;20249;-71
2022/12/07 09:41:39;;;;;;;5.93;2.40;;;;;;;4.49;98.79;101182.69;5008383;28;20215;-71
2022/12/07 09:44:09;;;;;;;7.97;2.57;;;;;;;4.70;98.78;101181.16;5010553;28;20278;-72
2022/12/07 09:46:38;;;;;;;8.20;2.60;;;;;;;4.77;98.58;101178.13;5008114;28;20191;-73
2022/12/07 09:49:05;;;;;;;6.23;1.97;;;;;;;4.83;98.57;101180.94;5005505;28;20202;-74
2022/12/07 09:51:31;;;;;;;5.57;1.83;;;;;;;4.79;98.95;101180.75;5004315;28;20210;-72
2022/12/07 09:53:59;;;;;;;7.50;2.10;;;;;;;4.54;98.50;101176.16;5010513;28;20592;-72
2022/12/07 09:56:25;;;;;;;10.50;2.23;;;;;;;4.44;98.94;101178.19;4998349;28;20215;-70
2022/12/07 09:58:59;;;;;;;4.50;1.97;;;;;;;4.45;99.09;101178.25;5008925;28;20199;-72
2022/12/07 10:01:24;;;;;;;6.07;1.93;;;;;;;4.42;99.18;101175.56;5000206;28;20207;-73
2022/12/07 10:03:52;;;;;;;7.47;2.47;;;;;;;4.45;98.72;101178.25;5000340;28;20183;-73
2022/12/07 10:06:17;;;;;;;3.83;1.93;;;;;;;4.50;99.33;101166.66;5002972;28;20260;-73
2022/12/07 10:08:43;;;;;;;4.67;2.30;;;;;;;4.57;98.89;101173.78;4991640;28;20661;-73
2022/12/07 10:11:10;;;;;;;9.63;1.87;;;;;;;4.57;99.14;101171.25;4999329;28;20253;-73
2022/12/07 10:14:12;;;;;;;5.67;1.73;;;;;;;4.66;98.61;101171.69;4998918;28;20208;-74
2022/12/07 10:16:41;;;;;;;4.60;1.40;;;;;;;4.66;98.36;101163.22;4963157;28;20245;-74
2022/12/07 10:19:39;;;;;;;5.47;1.80;;;;;;;4.66;98.38;101166.63;4999091;28;20217;-75
2022/12/07 10:22:10;;;;;;;8.77;1.77;;;;;;;4.65;98.22;101169.94;4938369;28;20223;-74
2022/12/07 10:24:39;;;;;;;4.13;1.70;;;;;;;4.57;97.94;101171.25;5002791;28;20199;-74
2022/12/07 10:27:11;;;;;;;4.93;1.73;;;;;;;4.62;97.86;101167.28;5005627;28;20202;-74
2022/12/07 10:29:38;;;;;;;6.73;2.13;;;;;;;4.52;97.89;101165.06;5005340;28;20203;-73
2022/12/07 10:32:06;;;;;;;8.60;1.90;;;;;;;4.52;97.96;101160.00;4975986;28;20219;-72
2022/12/07 10:34:35;;;;;;;5.93;1.83;;;;;;;4.58;98.00;101155.25;5002128;28;20656;-73
2022/12/07 10:37:13;;;;;;;5.93;1.73;;;;;;;4.59;97.47;101154.44;5005709;28;20212;-73
2022/12/07 10:39:48;;;;;;;3.93;1.67;;;;;;;4.63;97.49;101161.41;5003299;28;20241;-72
2022/12/07 10:42:24;;;;;;;3.23;1.67;;;;;;;4.82;96.66;101150.44;5004179;28;20223;-72
2022/12/07 10:45:09;;;;;;;3.90;1.50;;;;;;;4.87;95.75;101154.06;5001979;28;20195;-72
2022/12/07 10:47:55;;;;;;;5.27;1.33;;;;;;;4.94;95.13;101149.38;5003112;28;20270;-72
2022/12/07 10:50:45;;;;;;;5.33;1.50;;;;;;;4.79;94.77;101153.69;4998193;28;20268;-72
2022/12/07 10:53:25;;;;;;;5.73;1.33;;;;;;;4.69;95.17;101154.06;5003724;28;20186;-72
2022/12/07 10:56:09;;;;;;;8.43;1.30;;;;;;;4.69;95.38;101154.06;4999623;28;20217;-70
2022/12/07 10:58:54;;;;;;;7.33;2.03;;;;;;;4.71;95.27;101151.63;5003983;28;20207;-71
2022/12/07 11:01:25;;;;;;;6.37;2.27;;;;;;;4.70;94.29;101147.34;5015037;28;20298;-72
2022/12/07 11:04:28;;;;;;;6.13;1.90;;;;;;;4.94;94.32;101140.88;5006444;28;20195;-72
2022/12/07 11:07:22;;;;;;;7.77;1.53;;;;;;;5.52;91.49;101147.78;5001558;28;20238;-72
2022/12/07 11:10:20;;;;;;;7.03;1.70;;;;;;;6.97;85.44;101136.13;5001205;28;20203;-72
2022/12/07 11:13:10;;;;;;;3.47;1.30;;;;;;;8.75;78.35;101128.81;5001775;28;20242;-72
2022/12/07 11:15:59;;;;;;;3.37;0.93;;;;;;;10.09;71.59;101119.94;5012540;28;20233;-73
2022/12/07 11:19:15;;;;;;;3.17;1.20;;;;;;;11.26;65.96;101110.78;4956670;28;20199;-73
2022/12/07 11:21:43;;;;;;;3.37;1.30;;;;;;;10.24;66.92;101110.09;4908491;29;20305;-72
2022/12/07 11:24:17;;;;;;;4.80;1.03;;;;;;;8.39;73.59;101121.69;4911119;29;20250;-72
2022/12/07 11:27:30;;;;;;;3.73;1.10;;;;;;;7.13;77.87;101135.88;4966963;28;20221;-72
2022/12/07 11:30:01;;;;;;;3.87;0.90;;;;;;;6.55;80.72;101125.94;4984930;28;20207;-72
2022/12/07 11:32:39;;;;;;;3.67;0.80;;;;;;;6.27;82.65;101141.75;5003636;28;20597;-73
2022/12/07 11:35:10;;;;;;;4.87;1.00;;;;;;;6.22;84.10;101133.06;5006754;28;20202;-72
2022/12/07 11:37:37;;;;;;;5.17;1.10;;;;;;;5.94;83.93;101132.72;5009341;28;20199;-72